Terminal Aerodrome Forecast
Issued by NWS

Home | Current Version | Previous Version | Text Only | Print | Product List | Glossary On
Versions: 1 2 3 4 5 6 7 8 9 10 11 12 13 14 15 16
000
FTUS46 KMFR 201150
TAFLMT
TAF
KLMT 201150Z 2012/2112 17006KT P6SM -SHRASN SCT015 BKN020 OVC040
     FM201800 24014G25KT P6SM -SHRA SCT025 BKN050
     FM210100 27011KT P6SM BKN050
     FM210900 17006KT P6SM -SHRASN BKN040 OVC070=

USA.gov is the U.S. government's official web portal to all federal, state and local government web resources and services.